sensor_id;sensor_type;location;lat;lon;timestamp;temperature;humidity
13211;DHT22;6670;51.53087800;7.23266500;2023-05-19T00:02:28;12.50;99.90
13211;DHT22;6670;51.53087800;7.23266500;2023-05-19T00:04:59;12.30;99.90
13211;DHT22;6670;51.53087800;7.23266500;2023-05-19T00:07:30;11.60;99.90
13211;DHT22;6670;51.53087800;7.23266500;2023-05-19T00:09:58;12.00;99.90
13211;DHT22;6670;51.53087800;7.23266500;2023-05-19T00:12:31;11.80;99.90
13211;DHT22;6670;51.53087800;7.23266500;2023-05-19T00:14:59;11.80;99.90
13211;DHT22;6670;51.53087800;7.23266500;2023-05-19T00:17:27;11.80;99.90
13211;DHT22;6670;51.53087800;7.23266500;2023-05-19T00:19:55;11.80;99.90
13211;DHT22;6670;51.53087800;7.23266500;2023-05-19T00:22:22;11.70;99.90
13211;DHT22;6670;51.53087800;7.23266500;2023-05-19T00:24:50;11.70;99.90
13211;DHT22;6670;51.53087800;7.23266500;2023-05-19T00:27:18;11.80;99.90
13211;DHT22;6670;51.53087800;7.23266500;2023-05-19T00:29:45;12.00;99.90
13211;DHT22;6670;51.53087800;7.23266500;2023-05-19T00:32:13;12.00;99.90
13211;DHT22;6670;51.53087800;7.23266500;2023-05-19T00:34:42;11.80;99.90
13211;DHT22;6670;51.53087800;7.23266500;2023-05-19T00:37:09;11.80;99.90
13211;DHT22;6670;51.53087800;7.23266500;2023-05-19T00:39:37;11.90;99.90
13211;DHT22;6670;51.53087800;7.23266500;2023-05-19T00:42:04;11.90;99.90
13211;DHT22;6670;51.53087800;7.23266500;2023-05-19T00:44:32;12.00;99.90
13211;DHT22;6670;51.53087800;7.23266500;2023-05-19T00:46:59;12.00;99.90
13211;DHT22;6670;51.53087800;7.23266500;2023-05-19T00:49:27;12.00;99.90
13211;DHT22;6670;51.53087800;7.23266500;2023-05-19T00:51:56;12.00;99.90
13211;DHT22;6670;51.53087800;7.23266500;2023-05-19T00:54:25;12.20;99.90
13211;DHT22;6670;51.53087800;7.23266500;2023-05-19T00:56:53;12.20;99.90
13211;DHT22;6670;51.53087800;7.23266500;2023-05-19T00:59:22;12.10;99.90
13211;DHT22;6670;51.53087800;7.23266500;2023-05-19T01:01:49;12.00;99.90
13211;DHT22;6670;51.53087800;7.23266500;2023-05-19T01:04:18;12.10;99.90
13211;DHT22;6670;51.53087800;7.23266500;2023-05-19T01:06:48;12.00;99.90
13211;DHT22;6670;51.53087800;7.23266500;2023-05-19T01:09:21;12.10;99.90
13211;DHT22;6670;51.53087800;7.23266500;2023-05-19T01:11:49;11.70;99.90
13211;DHT22;6670;51.53087800;7.23266500;2023-05-19T01:14:16;11.50;99.90
13211;DHT22;6670;51.53087800;7.23266500;2023-05-19T01:16:48;11.30;99.90
13211;DHT22;6670;51.53087800;7.23266500;2023-05-19T01:19:30;11.30;99.90
13211;DHT22;6670;51.53087800;7.23266500;2023-05-19T01:22:13;11.50;99.90
13211;DHT22;6670;51.53087800;7.23266500;2023-05-19T01:28:29;11.40;99.90
13211;DHT22;6670;51.53087800;7.23266500;2023-05-19T01:30:59;11.10;99.90
13211;DHT22;6670;51.53087800;7.23266500;2023-05-19T01:33:31;11.00;99.90
13211;DHT22;6670;51.53087800;7.23266500;2023-05-19T01:35:59;11.10;99.90
13211;DHT22;6670;51.53087800;7.23266500;2023-05-19T01:38:29;11.10;99.90
13211;DHT22;6670;51.53087800;7.23266500;2023-05-19T01:40:59;11.20;99.90
13211;DHT22;6670;51.53087800;7.23266500;2023-05-19T01:43:26;11.00;99.90
13211;DHT22;6670;51.53087800;7.23266500;2023-05-19T01:45:55;11.10;99.90
13211;DHT22;6670;51.53087800;7.23266500;2023-05-19T01:48:28;10.90;99.90
13211;DHT22;6670;51.53087800;7.23266500;2023-05-19T01:50:57;11.00;99.90
13211;DHT22;6670;51.53087800;7.23266500;2023-05-19T01:53:24;11.10;99.90
13211;DHT22;6670;51.53087800;7.23266500;2023-05-19T01:55:54;11.00;99.90
13211;DHT22;6670;51.53087800;7.23266500;2023-05-19T01:58:32;11.10;99.90
13211;DHT22;6670;51.53087800;7.23266500;2023-05-19T02:01:08;11.10;99.90
13211;DHT22;6670;51.53087800;7.23266500;2023-05-19T02:04:09;11.10;99.90
13211;DHT22;6670;51.53087800;7.23266500;2023-05-19T02:06:41;11.00;99.90
13211;DHT22;6670;51.53087800;7.23266500;2023-05-19T02:09:19;10.90;99.90
13211;DHT22;6670;51.53087800;7.23266500;2023-05-19T02:11:54;10.80;99.90
13211;DHT22;6670;51.53087800;7.23266500;2023-05-19T02:14:32;10.70;99.90
13211;DHT22;6670;51.53087800;7.23266500;2023-05-19T02:17:02;10.50;99.90
13211;DHT22;6670;51.53087800;7.23266500;2023-05-19T02:19:33;10.40;99.90
13211;DHT22;6670;51.53087800;7.23266500;2023-05-19T02:22:01;10.30;99.90
13211;DHT22;6670;51.53087800;7.23266500;2023-05-19T02:24:28;10.30;99.90
13211;DHT22;6670;51.53087800;7.23266500;2023-05-19T02:26:58;10.20;99.90
13211;DHT22;6670;51.53087800;7.23266500;2023-05-19T02:29:26;10.50;99.90
13211;DHT22;6670;51.53087800;7.23266500;2023-05-19T02:31:53;10.60;99.90
13211;DHT22;6670;51.53087800;7.23266500;2023-05-19T02:34:20;10.50;99.90
13211;DHT22;6670;51.53087800;7.23266500;2023-05-19T02:36:49;10.60;99.90
13211;DHT22;6670;51.53087800;7.23266500;2023-05-19T02:39:17;10.70;99.90
13211;DHT22;6670;51.53087800;7.23266500;2023-05-19T02:41:44;10.50;99.90
13211;DHT22;6670;51.53087800;7.23266500;2023-05-19T02:44:12;10.40;99.90
13211;DHT22;6670;51.53087800;7.23266500;2023-05-19T02:46:39;10.50;99.90
13211;DHT22;6670;51.53087800;7.23266500;2023-05-19T02:49:06;10.60;99.90
13211;DHT22;6670;51.53087800;7.23266500;2023-05-19T02:51:34;10.40;99.90
13211;DHT22;6670;51.53087800;7.23266500;2023-05-19T02:54:03;10.30;99.90
13211;DHT22;6670;51.53087800;7.23266500;2023-05-19T02:56:30;10.30;99.90
13211;DHT22;6670;51.53087800;7.23266500;2023-05-19T02:58:57;10.30;99.90
13211;DHT22;6670;51.53087800;7.23266500;2023-05-19T03:01:25;10.10;99.90
13211;DHT22;6670;51.53087800;7.23266500;2023-05-19T03:03:53;10.20;99.90
13211;DHT22;6670;51.53087800;7.23266500;2023-05-19T03:06:20;10.30;99.90
13211;DHT22;6670;51.53087800;7.23266500;2023-05-19T03:08:49;10.30;99.90
13211;DHT22;6670;51.53087800;7.23266500;2023-05-19T03:11:18;10.30;99.90
13211;DHT22;6670;51.53087800;7.23266500;2023-05-19T03:13:45;10.30;99.90
13211;DHT22;6670;51.53087800;7.23266500;2023-05-19T03:16:13;10.10;99.90
13211;DHT22;6670;51.53087800;7.23266500;2023-05-19T03:18:40;10.10;99.90
13211;DHT22;6670;51.53087800;7.23266500;2023-05-19T03:21:08;10.00;99.90
13211;DHT22;6670;51.53087800;7.23266500;2023-05-19T03:23:35;9.90;99.90
13211;DHT22;6670;51.53087800;7.23266500;2023-05-19T03:26:03;10.00;99.90
13211;DHT22;6670;51.53087800;7.23266500;2023-05-19T03:28:32;10.00;99.90
13211;DHT22;6670;51.53087800;7.23266500;2023-05-19T03:31:00;9.90;99.90
13211;DHT22;6670;51.53087800;7.23266500;2023-05-19T03:33:33;10.00;99.90
13211;DHT22;6670;51.53087800;7.23266500;2023-05-19T03:36:00;10.10;99.90
13211;DHT22;6670;51.53087800;7.23266500;2023-05-19T03:38:32;10.20;99.90
13211;DHT22;6670;51.53087800;7.23266500;2023-05-19T03:41:00;10.00;99.90
13211;DHT22;6670;51.53087800;7.23266500;2023-05-19T03:43:27;10.10;99.90
13211;DHT22;6670;51.53087800;7.23266500;2023-05-19T03:46:01;10.10;99.90
13211;DHT22;6670;51.53087800;7.23266500;2023-05-19T03:48:54;10.20;99.90
13211;DHT22;6670;51.53087800;7.23266500;2023-05-19T03:51:40;9.80;99.90
13211;DHT22;6670;51.53087800;7.23266500;2023-05-19T03:54:20;9.80;99.90
13211;DHT22;6670;51.53087800;7.23266500;2023-05-19T03:56:48;9.90;99.90
13211;DHT22;6670;51.53087800;7.23266500;2023-05-19T03:59:16;10.00;99.90
13211;DHT22;6670;51.53087800;7.23266500;2023-05-19T04:01:44;10.00;99.90
13211;DHT22;6670;51.53087800;7.23266500;2023-05-19T04:04:12;10.10;99.90
13211;DHT22;6670;51.53087800;7.23266500;2023-05-19T04:06:40;10.00;99.90
13211;DHT22;6670;51.53087800;7.23266500;2023-05-19T04:09:10;10.00;99.90
13211;DHT22;6670;51.53087800;7.23266500;2023-05-19T04:11:39;10.10;99.90
13211;DHT22;6670;51.53087800;7.23266500;2023-05-19T04:14:07;10.00;99.90
13211;DHT22;6670;51.53087800;7.23266500;2023-05-19T04:16:34;10.10;99.90
13211;DHT22;6670;51.53087800;7.23266500;2023-05-19T04:19:03;10.20;99.90
13211;DHT22;6670;51.53087800;7.23266500;2023-05-19T04:21:31;10.20;99.90
13211;DHT22;6670;51.53087800;7.23266500;2023-05-19T04:23:58;10.20;99.90
13211;DHT22;6670;51.53087800;7.23266500;2023-05-19T04:26:26;10.30;99.90
13211;DHT22;6670;51.53087800;7.23266500;2023-05-19T04:28:56;10.40;99.90
13211;DHT22;6670;51.53087800;7.23266500;2023-05-19T04:31:23;10.40;99.90
13211;DHT22;6670;51.53087800;7.23266500;2023-05-19T04:33:52;10.30;99.90
13211;DHT22;6670;51.53087800;7.23266500;2023-05-19T04:36:22;10.30;99.90
13211;DHT22;6670;51.53087800;7.23266500;2023-05-19T04:38:52;10.50;99.90
13211;DHT22;6670;51.53087800;7.23266500;2023-05-19T04:41:22;10.60;99.90
13211;DHT22;6670;51.53087800;7.23266500;2023-05-19T04:43:49;10.60;99.90
13211;DHT22;6670;51.53087800;7.23266500;2023-05-19T04:46:18;10.60;99.90
13211;DHT22;6670;51.53087800;7.23266500;2023-05-19T04:48:49;10.70;99.90
13211;DHT22;6670;51.53087800;7.23266500;2023-05-19T04:51:16;10.50;99.90
13211;DHT22;6670;51.53087800;7.23266500;2023-05-19T04:53:45;10.60;99.90
13211;DHT22;6670;51.53087800;7.23266500;2023-05-19T04:56:13;10.80;99.90
13211;DHT22;6670;51.53087800;7.23266500;2023-05-19T04:58:41;10.80;99.90
13211;DHT22;6670;51.53087800;7.23266500;2023-05-19T05:01:09;10.70;99.90
13211;DHT22;6670;51.53087800;7.23266500;2023-05-19T05:03:38;10.50;99.90
13211;DHT22;6670;51.53087800;7.23266500;2023-05-19T05:06:06;10.60;99.90
13211;DHT22;6670;51.53087800;7.23266500;2023-05-19T05:08:34;10.50;99.90
13211;DHT22;6670;51.53087800;7.23266500;2023-05-19T05:11:07;10.60;99.90
13211;DHT22;6670;51.53087800;7.23266500;2023-05-19T05:13:35;10.80;99.90
13211;DHT22;6670;51.53087800;7.23266500;2023-05-19T05:16:03;10.80;99.90
13211;DHT22;6670;51.53087800;7.23266500;2023-05-19T05:18:32;10.90;99.90
13211;DHT22;6670;51.53087800;7.23266500;2023-05-19T05:21:00;10.90;99.90
13211;DHT22;6670;51.53087800;7.23266500;2023-05-19T05:23:29;10.90;99.90
13211;DHT22;6670;51.53087800;7.23266500;2023-05-19T05:25:57;11.00;99.90
13211;DHT22;6670;51.53087800;7.23266500;2023-05-19T05:28:26;11.10;99.90
13211;DHT22;6670;51.53087800;7.23266500;2023-05-19T05:30:53;11.30;99.90
13211;DHT22;6670;51.53087800;7.23266500;2023-05-19T05:33:25;11.30;99.90
13211;DHT22;6670;51.53087800;7.23266500;2023-05-19T05:35:53;11.30;99.90
13211;DHT22;6670;51.53087800;7.23266500;2023-05-19T05:38:20;11.00;99.90
13211;DHT22;6670;51.53087800;7.23266500;2023-05-19T05:40:48;11.20;99.90
13211;DHT22;6670;51.53087800;7.23266500;2023-05-19T05:43:15;11.40;99.90
13211;DHT22;6670;51.53087800;7.23266500;2023-05-19T05:45:50;11.40;99.90
13211;DHT22;6670;51.53087800;7.23266500;2023-05-19T05:48:20;11.50;99.90
13211;DHT22;6670;51.53087800;7.23266500;2023-05-19T05:50:53;11.50;99.90
13211;DHT22;6670;51.53087800;7.23266500;2023-05-19T05:53:34;11.70;99.90
13211;DHT22;6670;51.53087800;7.23266500;2023-05-19T05:56:03;11.70;99.90
13211;DHT22;6670;51.53087800;7.23266500;2023-05-19T05:58:39;11.60;99.90
13211;DHT22;6670;51.53087800;7.23266500;2023-05-19T06:01:08;11.70;99.90
13211;DHT22;6670;51.53087800;7.23266500;2023-05-19T06:03:59;11.80;99.90
13211;DHT22;6670;51.53087800;7.23266500;2023-05-19T06:06:26;12.00;99.90
13211;DHT22;6670;51.53087800;7.23266500;2023-05-19T06:08:54;12.00;99.90
13211;DHT22;6670;51.53087800;7.23266500;2023-05-19T06:11:23;11.90;99.90
13211;DHT22;6670;51.53087800;7.23266500;2023-05-19T06:13:55;11.80;99.90
13211;DHT22;6670;51.53087800;7.23266500;2023-05-19T06:16:45;11.90;99.90
13211;DHT22;6670;51.53087800;7.23266500;2023-05-19T06:19:14;12.10;99.90
13211;DHT22;6670;51.53087800;7.23266500;2023-05-19T06:21:42;12.20;99.90
13211;DHT22;6670;51.53087800;7.23266500;2023-05-19T06:24:09;12.50;99.90
13211;DHT22;6670;51.53087800;7.23266500;2023-05-19T06:26:37;12.30;99.90
13211;DHT22;6670;51.53087800;7.23266500;2023-05-19T06:29:04;12.40;99.90
13211;DHT22;6670;51.53087800;7.23266500;2023-05-19T06:31:33;12.40;99.90
13211;DHT22;6670;51.53087800;7.23266500;2023-05-19T06:34:14;12.60;99.90
13211;DHT22;6670;51.53087800;7.23266500;2023-05-19T06:36:43;12.80;99.90
13211;DHT22;6670;51.53087800;7.23266500;2023-05-19T06:39:11;12.70;99.90
13211;DHT22;6670;51.53087800;7.23266500;2023-05-19T06:41:40;12.50;99.90
13211;DHT22;6670;51.53087800;7.23266500;2023-05-19T06:44:07;12.60;99.90
13211;DHT22;6670;51.53087800;7.23266500;2023-05-19T06:46:35;12.60;99.90
13211;DHT22;6670;51.53087800;7.23266500;2023-05-19T06:49:03;12.70;99.90
13211;DHT22;6670;51.53087800;7.23266500;2023-05-19T06:51:37;12.60;99.90
13211;DHT22;6670;51.53087800;7.23266500;2023-05-19T06:54:23;12.70;99.90
13211;DHT22;6670;51.53087800;7.23266500;2023-05-19T06:56:50;12.80;99.90
13211;DHT22;6670;51.53087800;7.23266500;2023-05-19T06:59:18;13.10;99.90
13211;DHT22;6670;51.53087800;7.23266500;2023-05-19T07:01:47;13.20;99.90
13211;DHT22;6670;51.53087800;7.23266500;2023-05-19T07:04:16;13.30;99.90
13211;DHT22;6670;51.53087800;7.23266500;2023-05-19T07:06:48;13.20;99.90
13211;DHT22;6670;51.53087800;7.23266500;2023-05-19T07:09:16;13.40;99.90
13211;DHT22;6670;51.53087800;7.23266500;2023-05-19T07:11:44;13.60;99.90
13211;DHT22;6670;51.53087800;7.23266500;2023-05-19T07:14:12;13.60;99.90
13211;DHT22;6670;51.53087800;7.23266500;2023-05-19T07:16:40;13.70;99.90
13211;DHT22;6670;51.53087800;7.23266500;2023-05-19T07:19:08;13.60;99.90
13211;DHT22;6670;51.53087800;7.23266500;2023-05-19T07:21:35;13.70;99.90
13211;DHT22;6670;51.53087800;7.23266500;2023-05-19T07:24:04;13.50;99.90
13211;DHT22;6670;51.53087800;7.23266500;2023-05-19T07:26:32;13.70;99.90
13211;DHT22;6670;51.53087800;7.23266500;2023-05-19T07:28:59;13.70;99.90
13211;DHT22;6670;51.53087800;7.23266500;2023-05-19T07:31:29;13.80;99.90
13211;DHT22;6670;51.53087800;7.23266500;2023-05-19T07:33:57;14.00;99.90
13211;DHT22;6670;51.53087800;7.23266500;2023-05-19T07:36:24;14.00;99.90
13211;DHT22;6670;51.53087800;7.23266500;2023-05-19T07:38:52;14.10;99.90
13211;DHT22;6670;51.53087800;7.23266500;2023-05-19T07:41:21;14.10;99.90
13211;DHT22;6670;51.53087800;7.23266500;2023-05-19T07:43:49;14.10;99.90
13211;DHT22;6670;51.53087800;7.23266500;2023-05-19T07:46:16;14.30;99.90
13211;DHT22;6670;51.53087800;7.23266500;2023-05-19T07:48:44;14.40;99.40
13211;DHT22;6670;51.53087800;7.23266500;2023-05-19T07:51:11;14.60;99.30
13211;DHT22;6670;51.53087800;7.23266500;2023-05-19T07:53:39;14.50;99.60
13211;DHT22;6670;51.53087800;7.23266500;2023-05-19T07:56:12;14.60;98.90
13211;DHT22;6670;51.53087800;7.23266500;2023-05-19T07:58:41;14.60;99.00
13211;DHT22;6670;51.53087800;7.23266500;2023-05-19T08:01:09;14.60;98.80
13211;DHT22;6670;51.53087800;7.23266500;2023-05-19T08:03:36;14.60;98.30
13211;DHT22;6670;51.53087800;7.23266500;2023-05-19T08:06:10;14.70;98.40
13211;DHT22;6670;51.53087800;7.23266500;2023-05-19T08:08:38;14.80;98.30
13211;DHT22;6670;51.53087800;7.23266500;2023-05-19T08:11:05;14.90;98.00
13211;DHT22;6670;51.53087800;7.23266500;2023-05-19T08:13:33;15.00;97.10
13211;DHT22;6670;51.53087800;7.23266500;2023-05-19T08:16:02;15.00;96.50
13211;DHT22;6670;51.53087800;7.23266500;2023-05-19T08:18:30;14.90;96.60
13211;DHT22;6670;51.53087800;7.23266500;2023-05-19T08:20:57;15.00;96.30
13211;DHT22;6670;51.53087800;7.23266500;2023-05-19T08:23:25;15.10;96.70
13211;DHT22;6670;51.53087800;7.23266500;2023-05-19T08:25:52;15.20;95.90
13211;DHT22;6670;51.53087800;7.23266500;2023-05-19T08:28:20;15.20;96.20
13211;DHT22;6670;51.53087800;7.23266500;2023-05-19T08:30:49;15.30;96.40
13211;DHT22;6670;51.53087800;7.23266500;2023-05-19T08:33:18;15.30;95.90
13211;DHT22;6670;51.53087800;7.23266500;2023-05-19T08:35:46;15.50;95.50
13211;DHT22;6670;51.53087800;7.23266500;2023-05-19T08:38:14;15.50;94.80
13211;DHT22;6670;51.53087800;7.23266500;2023-05-19T08:40:42;15.50;94.80
13211;DHT22;6670;51.53087800;7.23266500;2023-05-19T08:43:12;15.70;94.60
13211;DHT22;6670;51.53087800;7.23266500;2023-05-19T08:45:42;15.80;95.20
13211;DHT22;6670;51.53087800;7.23266500;2023-05-19T08:48:12;15.90;94.60
13211;DHT22;6670;51.53087800;7.23266500;2023-05-19T08:50:49;15.90;92.70
13211;DHT22;6670;51.53087800;7.23266500;2023-05-19T08:53:19;16.00;93.60
13211;DHT22;6670;51.53087800;7.23266500;2023-05-19T08:55:54;16.10;93.20
13211;DHT22;6670;51.53087800;7.23266500;2023-05-19T08:58:25;16.00;92.50
13211;DHT22;6670;51.53087800;7.23266500;2023-05-19T09:00:54;16.10;92.40
13211;DHT22;6670;51.53087800;7.23266500;2023-05-19T09:03:22;15.90;91.60
13211;DHT22;6670;51.53087800;7.23266500;2023-05-19T09:05:52;15.90;91.70
13211;DHT22;6670;51.53087800;7.23266500;2023-05-19T09:08:20;15.80;91.80
13211;DHT22;6670;51.53087800;7.23266500;2023-05-19T09:10:47;16.00;92.60
13211;DHT22;6670;51.53087800;7.23266500;2023-05-19T09:13:15;16.10;91.90
13211;DHT22;6670;51.53087800;7.23266500;2023-05-19T09:15:43;16.30;90.90
13211;DHT22;6670;51.53087800;7.23266500;2023-05-19T09:18:12;16.30;90.00
13211;DHT22;6670;51.53087800;7.23266500;2023-05-19T09:20:47;16.20;90.20
13211;DHT22;6670;51.53087800;7.23266500;2023-05-19T09:23:17;16.30;89.80
13211;DHT22;6670;51.53087800;7.23266500;2023-05-19T09:25:48;16.50;90.00
13211;DHT22;6670;51.53087800;7.23266500;2023-05-19T09:28:22;16.50;89.90
13211;DHT22;6670;51.53087800;7.23266500;2023-05-19T09:30:59;16.50;87.60
13211;DHT22;6670;51.53087800;7.23266500;2023-05-19T09:33:27;16.60;88.00
13211;DHT22;6670;51.53087800;7.23266500;2023-05-19T09:35:55;16.60;86.80
13211;DHT22;6670;51.53087800;7.23266500;2023-05-19T09:38:25;16.60;86.30
13211;DHT22;6670;51.53087800;7.23266500;2023-05-19T09:40:55;16.40;84.00
13211;DHT22;6670;51.53087800;7.23266500;2023-05-19T09:43:23;16.30;84.20
13211;DHT22;6670;51.53087800;7.23266500;2023-05-19T09:45:54;16.50;87.40
13211;DHT22;6670;51.53087800;7.23266500;2023-05-19T09:48:31;16.70;87.10
13211;DHT22;6670;51.53087800;7.23266500;2023-05-19T09:51:00;16.80;84.70
13211;DHT22;6670;51.53087800;7.23266500;2023-05-19T09:53:29;16.80;85.20
13211;DHT22;6670;51.53087800;7.23266500;2023-05-19T09:55:57;17.00;86.40
13211;DHT22;6670;51.53087800;7.23266500;2023-05-19T09:58:25;17.00;86.60
13211;DHT22;6670;51.53087800;7.23266500;2023-05-19T10:00:53;16.90;84.80
13211;DHT22;6670;51.53087800;7.23266500;2023-05-19T10:03:21;16.90;84.40
13211;DHT22;6670;51.53087800;7.23266500;2023-05-19T10:05:52;17.00;81.90
13211;DHT22;6670;51.53087800;7.23266500;2023-05-19T10:08:46;17.00;83.60
13211;DHT22;6670;51.53087800;7.23266500;2023-05-19T10:11:16;17.00;82.10
13211;DHT22;6670;51.53087800;7.23266500;2023-05-19T10:13:44;17.10;81.20
13211;DHT22;6670;51.53087800;7.23266500;2023-05-19T10:16:13;17.20;84.10
13211;DHT22;6670;51.53087800;7.23266500;2023-05-19T10:18:42;17.10;82.00
13211;DHT22;6670;51.53087800;7.23266500;2023-05-19T10:21:10;17.20;79.50
13211;DHT22;6670;51.53087800;7.23266500;2023-05-19T10:23:38;17.20;81.70
13211;DHT22;6670;51.53087800;7.23266500;2023-05-19T10:26:07;17.30;77.10
13211;DHT22;6670;51.53087800;7.23266500;2023-05-19T10:28:37;17.30;79.00
13211;DHT22;6670;51.53087800;7.23266500;2023-05-19T10:31:08;17.40;81.80
13211;DHT22;6670;51.53087800;7.23266500;2023-05-19T10:33:55;17.60;81.20
13211;DHT22;6670;51.53087800;7.23266500;2023-05-19T10:36:40;17.80;78.60
13211;DHT22;6670;51.53087800;7.23266500;2023-05-19T10:39:15;17.80;77.40
13211;DHT22;6670;51.53087800;7.23266500;2023-05-19T10:41:52;17.80;78.40
13211;DHT22;6670;51.53087800;7.23266500;2023-05-19T10:44:34;18.10;79.70
13211;DHT22;6670;51.53087800;7.23266500;2023-05-19T10:47:05;18.10;76.90
13211;DHT22;6670;51.53087800;7.23266500;2023-05-19T10:49:34;18.10;74.00
13211;DHT22;6670;51.53087800;7.23266500;2023-05-19T10:52:02;18.20;76.60
13211;DHT22;6670;51.53087800;7.23266500;2023-05-19T10:54:39;18.00;77.30
13211;DHT22;6670;51.53087800;7.23266500;2023-05-19T10:57:13;18.20;78.00
13211;DHT22;6670;51.53087800;7.23266500;2023-05-19T10:59:42;18.40;76.70
13211;DHT22;6670;51.53087800;7.23266500;2023-05-19T11:02:37;18.50;76.10
13211;DHT22;6670;51.53087800;7.23266500;2023-05-19T11:05:09;18.40;76.10
13211;DHT22;6670;51.53087800;7.23266500;2023-05-19T11:07:43;18.50;74.90
13211;DHT22;6670;51.53087800;7.23266500;2023-05-19T11:10:11;18.70;76.70
13211;DHT22;6670;51.53087800;7.23266500;2023-05-19T11:12:41;18.80;76.00
13211;DHT22;6670;51.53087800;7.23266500;2023-05-19T11:15:15;18.90;76.10
13211;DHT22;6670;51.53087800;7.23266500;2023-05-19T11:17:46;18.90;75.60
13211;DHT22;6670;51.53087800;7.23266500;2023-05-19T11:20:21;18.90;76.70
13211;DHT22;6670;51.53087800;7.23266500;2023-05-19T11:23:05;18.90;73.60
13211;DHT22;6670;51.53087800;7.23266500;2023-05-19T11:25:46;18.70;74.10
13211;DHT22;6670;51.53087800;7.23266500;2023-05-19T11:28:21;19.00;76.60
13211;DHT22;6670;51.53087800;7.23266500;2023-05-19T11:30:53;19.10;72.10
13211;DHT22;6670;51.53087800;7.23266500;2023-05-19T11:33:22;19.40;74.20
13211;DHT22;6670;51.53087800;7.23266500;2023-05-19T11:35:53;19.30;72.60
13211;DHT22;6670;51.53087800;7.23266500;2023-05-19T11:38:23;19.60;73.50
13211;DHT22;6670;51.53087800;7.23266500;2023-05-19T11:40:52;19.70;73.10
13211;DHT22;6670;51.53087800;7.23266500;2023-05-19T11:43:22;19.40;70.50
13211;DHT22;6670;51.53087800;7.23266500;2023-05-19T11:45:50;18.90;73.10
13211;DHT22;6670;51.53087800;7.23266500;2023-05-19T11:48:20;19.10;74.10
13211;DHT22;6670;51.53087800;7.23266500;2023-05-19T11:50:47;19.40;73.60
13211;DHT22;6670;51.53087800;7.23266500;2023-05-19T11:53:18;19.60;74.60
13211;DHT22;6670;51.53087800;7.23266500;2023-05-19T11:55:46;19.80;74.40
13211;DHT22;6670;51.53087800;7.23266500;2023-05-19T11:58:14;19.80;73.00
13211;DHT22;6670;51.53087800;7.23266500;2023-05-19T12:00:43;19.80;74.40
13211;DHT22;6670;51.53087800;7.23266500;2023-05-19T12:03:12;20.20;71.80
13211;DHT22;6670;51.53087800;7.23266500;2023-05-19T12:05:42;20.10;71.80
13211;DHT22;6670;51.53087800;7.23266500;2023-05-19T12:08:10;19.90;70.10
13211;DHT22;6670;51.53087800;7.23266500;2023-05-19T12:10:39;20.00;68.90
13211;DHT22;6670;51.53087800;7.23266500;2023-05-19T12:13:07;20.30;69.50
13211;DHT22;6670;51.53087800;7.23266500;2023-05-19T12:15:35;20.10;70.80
13211;DHT22;6670;51.53087800;7.23266500;2023-05-19T12:18:04;20.30;71.40
13211;DHT22;6670;51.53087800;7.23266500;2023-05-19T12:20:32;20.30;73.90
13211;DHT22;6670;51.53087800;7.23266500;2023-05-19T12:23:01;20.60;70.60
13211;DHT22;6670;51.53087800;7.23266500;2023-05-19T12:27:18;20.30;70.60
13211;DHT22;6670;51.53087800;7.23266500;2023-05-19T12:28:44;20.10;71.90
13211;DHT22;6670;51.53087800;7.23266500;2023-05-19T12:31:11;20.60;70.20
13211;DHT22;6670;51.53087800;7.23266500;2023-05-19T12:33:40;20.50;67.50
13211;DHT22;6670;51.53087800;7.23266500;2023-05-19T12:36:09;20.40;69.70
13211;DHT22;6670;51.53087800;7.23266500;2023-05-19T12:38:42;20.50;68.50
13211;DHT22;6670;51.53087800;7.23266500;2023-05-19T12:41:10;20.60;68.80
13211;DHT22;6670;51.53087800;7.23266500;2023-05-19T12:43:38;20.70;66.50
13211;DHT22;6670;51.53087800;7.23266500;2023-05-19T12:46:09;20.70;69.50
13211;DHT22;6670;51.53087800;7.23266500;2023-05-19T12:48:41;20.10;67.00
13211;DHT22;6670;51.53087800;7.23266500;2023-05-19T12:51:09;20.20;66.90
13211;DHT22;6670;51.53087800;7.23266500;2023-05-19T12:53:36;20.40;68.30
13211;DHT22;6670;51.53087800;7.23266500;2023-05-19T12:56:11;20.60;65.40
13211;DHT22;6670;51.53087800;7.23266500;2023-05-19T12:58:40;21.00;64.70
13211;DHT22;6670;51.53087800;7.23266500;2023-05-19T13:01:14;20.70;64.50
13211;DHT22;6670;51.53087800;7.23266500;2023-05-19T13:03:45;21.20;63.10
13211;DHT22;6670;51.53087800;7.23266500;2023-05-19T13:06:13;20.70;64.70
13211;DHT22;6670;51.53087800;7.23266500;2023-05-19T13:08:41;20.40;65.50
13211;DHT22;6670;51.53087800;7.23266500;2023-05-19T13:11:08;20.40;64.10
13211;DHT22;6670;51.53087800;7.23266500;2023-05-19T13:13:36;20.70;63.30
13211;DHT22;6670;51.53087800;7.23266500;2023-05-19T13:16:04;20.90;63.60
13211;DHT22;6670;51.53087800;7.23266500;2023-05-19T13:18:34;21.00;61.00
13211;DHT22;6670;51.53087800;7.23266500;2023-05-19T13:21:04;21.60;60.20
13211;DHT22;6670;51.53087800;7.23266500;2023-05-19T13:23:35;21.50;60.50
13211;DHT22;6670;51.53087800;7.23266500;2023-05-19T13:26:03;21.80;61.20
13211;DHT22;6670;51.53087800;7.23266500;2023-05-19T13:28:31;22.10;62.90
13211;DHT22;6670;51.53087800;7.23266500;2023-05-19T13:30:58;21.90;61.60
13211;DHT22;6670;51.53087800;7.23266500;2023-05-19T13:33:26;22.20;58.40
13211;DHT22;6670;51.53087800;7.23266500;2023-05-19T13:35:53;22.40;57.90
13211;DHT22;6670;51.53087800;7.23266500;2023-05-19T13:38:26;22.10;55.60
13211;DHT22;6670;51.53087800;7.23266500;2023-05-19T13:40:55;22.20;57.60
13211;DHT22;6670;51.53087800;7.23266500;2023-05-19T13:43:22;21.90;57.80
13211;DHT22;6670;51.53087800;7.23266500;2023-05-19T13:45:50;21.70;57.70
13211;DHT22;6670;51.53087800;7.23266500;2023-05-19T13:48:44;21.80;56.10
13211;DHT22;6670;51.53087800;7.23266500;2023-05-19T13:51:11;21.10;56.70
13211;DHT22;6670;51.53087800;7.23266500;2023-05-19T13:53:40;20.80;54.60
13211;DHT22;6670;51.53087800;7.23266500;2023-05-19T13:56:08;20.80;57.10